Delta Virtual Airport Information Service

Istanbul Airport

ICAO: LTFM Country: Turkey
Latitude: 41.2671 Longitude: 28.7298
Latest Arrival : DAC45 (FACT-LTFM) Latest Departure : QTR240 (LTFM-OTHH)


WX CaptureLIVE
Data provided by noaa.gov | Fetched at 00:24:12

METAR : LTFM 120450Z 36006KT 330V050 CAVOK 12/09 Q1013 NOSIG

TAF : LTFM 112240Z 1200/1306 06010KT CAVOK BECMG 1217/1220 12006KT


Runway Data for LTFM
Data provided by openaviationdata.com

Runway ID Mag Var Hdg Length Elevation Surface ILS Freq ILS Id ILS Slope

Istanbul Airport, Turkey
Use only for reference purposes



Not for navigational purposes.